Gouldbusk, Texas
Current Conditions -  °F | °C
As of 11:35 AM on Tuesday 21 Oct 2014 (Local Time) from KCOM Reporting Station
Clear Clear  
Wind Chill: 74°   Ceiling: Unl
Heat Index: 74°   Visibility: 10mi
Dew Point: 60°   Wind: 0mph
Humidity: 61%   Direction: NA
Pressure: 30.12"   Gusts: NA
Location:  31.55°N, 99.48°W
Report Text: KCOM 211635Z AUTO 00000KT 10SM CLR 23/15 A3012 RMK AO2 T02320154
Loading
Personal Weather Stations






























Interactive Weather Map
Tropical Storm Tracking
New forecast layout! Learn more

10-Day Weather Forecast

Advertisements
Track Severe Weather on mobile